sensor_id;sensor_type;location;lat;lon;timestamp;temperature;humidity
26081;DHT22;13991;51.174;4.438;2023-08-31T00:02:12;14.20;99.90
26081;DHT22;13991;51.174;4.438;2023-08-31T00:04:38;14.20;99.90
26081;DHT22;13991;51.174;4.438;2023-08-31T00:07:04;14.20;99.90
26081;DHT22;13991;51.174;4.438;2023-08-31T00:09:30;14.10;99.90
26081;DHT22;13991;51.174;4.438;2023-08-31T00:11:55;14.20;99.90
26081;DHT22;13991;51.174;4.438;2023-08-31T00:14:24;14.20;99.90
26081;DHT22;13991;51.174;4.438;2023-08-31T00:16:50;14.20;99.90
26081;DHT22;13991;51.174;4.438;2023-08-31T00:19:16;14.20;99.90
26081;DHT22;13991;51.174;4.438;2023-08-31T00:21:42;14.20;99.90
26081;DHT22;13991;51.174;4.438;2023-08-31T00:24:08;14.20;99.90
26081;DHT22;13991;51.174;4.438;2023-08-31T00:26:36;14.20;99.90
26081;DHT22;13991;51.174;4.438;2023-08-31T00:29:11;14.00;99.90
26081;DHT22;13991;51.174;4.438;2023-08-31T00:31:37;14.00;99.90
26081;DHT22;13991;51.174;4.438;2023-08-31T00:34:03;14.00;99.90
26081;DHT22;13991;51.174;4.438;2023-08-31T00:36:31;14.10;99.90
26081;DHT22;13991;51.174;4.438;2023-08-31T00:38:57;14.10;99.90
26081;DHT22;13991;51.174;4.438;2023-08-31T00:41:22;14.10;99.90
26081;DHT22;13991;51.174;4.438;2023-08-31T00:43:48;14.10;99.90
26081;DHT22;13991;51.174;4.438;2023-08-31T00:46:14;14.10;99.90
26081;DHT22;13991;51.174;4.438;2023-08-31T00:48:40;14.10;99.90
26081;DHT22;13991;51.174;4.438;2023-08-31T00:51:07;14.20;99.90
26081;DHT22;13991;51.174;4.438;2023-08-31T00:53:33;14.30;99.90
26081;DHT22;13991;51.174;4.438;2023-08-31T00:55:59;14.20;99.90
26081;DHT22;13991;51.174;4.438;2023-08-31T00:58:25;14.30;99.90
26081;DHT22;13991;51.174;4.438;2023-08-31T01:12:04;13.80;99.90
26081;DHT22;13991;51.174;4.438;2023-08-31T01:14:54;13.90;99.90
26081;DHT22;13991;51.174;4.438;2023-08-31T01:17:27;13.80;99.90
26081;DHT22;13991;51.174;4.438;2023-08-31T01:19:58;13.80;99.90
26081;DHT22;13991;51.174;4.438;2023-08-31T01:24:51;13.90;99.90
26081;DHT22;13991;51.174;4.438;2023-08-31T01:27:17;13.90;99.90
26081;DHT22;13991;51.174;4.438;2023-08-31T01:29:43;14.00;99.90
26081;DHT22;13991;51.174;4.438;2023-08-31T01:32:09;14.00;99.90
26081;DHT22;13991;51.174;4.438;2023-08-31T01:34:35;14.00;99.90
26081;DHT22;13991;51.174;4.438;2023-08-31T01:37:05;13.90;99.90
26081;DHT22;13991;51.174;4.438;2023-08-31T01:39:39;14.00;99.90
26081;DHT22;13991;51.174;4.438;2023-08-31T01:42:11;14.00;99.90
26081;DHT22;13991;51.174;4.438;2023-08-31T01:44:39;14.10;99.90
26081;DHT22;13991;51.174;4.438;2023-08-31T01:47:06;14.10;99.90
26081;DHT22;13991;51.174;4.438;2023-08-31T01:49:36;14.00;99.90
26081;DHT22;13991;51.174;4.438;2023-08-31T01:52:02;13.90;99.90
26081;DHT22;13991;51.174;4.438;2023-08-31T01:54:28;13.90;99.90
26081;DHT22;13991;51.174;4.438;2023-08-31T01:56:54;13.90;99.90
26081;DHT22;13991;51.174;4.438;2023-08-31T01:59:19;13.80;99.90
26081;DHT22;13991;51.174;4.438;2023-08-31T02:01:45;13.80;99.90
26081;DHT22;13991;51.174;4.438;2023-08-31T02:04:11;13.80;99.90
26081;DHT22;13991;51.174;4.438;2023-08-31T02:06:36;13.90;99.90
26081;DHT22;13991;51.174;4.438;2023-08-31T02:09:02;13.80;99.90
26081;DHT22;13991;51.174;4.438;2023-08-31T02:11:28;13.80;99.90
26081;DHT22;13991;51.174;4.438;2023-08-31T02:13:53;13.90;99.90
26081;DHT22;13991;51.174;4.438;2023-08-31T02:16:19;13.90;99.90
26081;DHT22;13991;51.174;4.438;2023-08-31T02:18:44;13.90;99.90
26081;DHT22;13991;51.174;4.438;2023-08-31T02:21:10;13.90;99.90
26081;DHT22;13991;51.174;4.438;2023-08-31T02:23:36;14.00;99.90
26081;DHT22;13991;51.174;4.438;2023-08-31T02:26:01;14.00;99.90
26081;DHT22;13991;51.174;4.438;2023-08-31T02:28:27;13.90;99.90
26081;DHT22;13991;51.174;4.438;2023-08-31T02:31:02;14.00;99.90
26081;DHT22;13991;51.174;4.438;2023-08-31T02:33:28;14.10;99.90
26081;DHT22;13991;51.174;4.438;2023-08-31T02:35:55;14.20;99.90
26081;DHT22;13991;51.174;4.438;2023-08-31T02:38:21;14.00;99.90
26081;DHT22;13991;51.174;4.438;2023-08-31T02:40:47;14.00;99.90
26081;DHT22;13991;51.174;4.438;2023-08-31T02:43:13;14.00;99.90
26081;DHT22;13991;51.174;4.438;2023-08-31T02:45:39;14.00;99.90
26081;DHT22;13991;51.174;4.438;2023-08-31T02:48:06;14.10;99.90
26081;DHT22;13991;51.174;4.438;2023-08-31T02:50:34;14.00;99.90
26081;DHT22;13991;51.174;4.438;2023-08-31T02:53:00;14.00;99.90
26081;DHT22;13991;51.174;4.438;2023-08-31T02:55:25;14.00;99.90
26081;DHT22;13991;51.174;4.438;2023-08-31T02:57:51;14.00;99.90
26081;DHT22;13991;51.174;4.438;2023-08-31T03:00:17;14.00;99.90
26081;DHT22;13991;51.174;4.438;2023-08-31T03:02:47;14.10;99.90
26081;DHT22;13991;51.174;4.438;2023-08-31T03:05:13;14.00;99.90
26081;DHT22;13991;51.174;4.438;2023-08-31T03:07:38;14.10;99.90
26081;DHT22;13991;51.174;4.438;2023-08-31T03:10:04;14.10;99.90
26081;DHT22;13991;51.174;4.438;2023-08-31T03:12:30;14.10;99.90
26081;DHT22;13991;51.174;4.438;2023-08-31T03:14:56;13.90;99.90
26081;DHT22;13991;51.174;4.438;2023-08-31T03:17:22;13.90;99.90
26081;DHT22;13991;51.174;4.438;2023-08-31T03:19:47;13.90;99.90
26081;DHT22;13991;51.174;4.438;2023-08-31T03:22:13;13.90;99.90
26081;DHT22;13991;51.174;4.438;2023-08-31T03:24:38;14.00;99.90
26081;DHT22;13991;51.174;4.438;2023-08-31T03:27:04;13.90;99.90
26081;DHT22;13991;51.174;4.438;2023-08-31T03:29:30;14.00;99.90
26081;DHT22;13991;51.174;4.438;2023-08-31T03:31:57;14.00;99.90
26081;DHT22;13991;51.174;4.438;2023-08-31T03:34:23;14.00;99.90
26081;DHT22;13991;51.174;4.438;2023-08-31T03:36:49;14.00;99.90
26081;DHT22;13991;51.174;4.438;2023-08-31T03:39:16;14.10;99.90
26081;DHT22;13991;51.174;4.438;2023-08-31T03:41:41;14.10;99.90
26081;DHT22;13991;51.174;4.438;2023-08-31T03:44:07;14.10;99.90
26081;DHT22;13991;51.174;4.438;2023-08-31T03:46:32;14.10;99.90
26081;DHT22;13991;51.174;4.438;2023-08-31T03:48:58;14.10;99.90
26081;DHT22;13991;51.174;4.438;2023-08-31T03:51:24;14.10;99.90
26081;DHT22;13991;51.174;4.438;2023-08-31T03:53:49;14.10;99.90
26081;DHT22;13991;51.174;4.438;2023-08-31T03:56:15;14.10;99.90
26081;DHT22;13991;51.174;4.438;2023-08-31T03:58:40;14.10;99.90
26081;DHT22;13991;51.174;4.438;2023-08-31T04:01:07;14.00;99.90
26081;DHT22;13991;51.174;4.438;2023-08-31T04:03:32;14.00;99.90
26081;DHT22;13991;51.174;4.438;2023-08-31T04:05:58;14.10;99.90
26081;DHT22;13991;51.174;4.438;2023-08-31T04:08:24;14.10;99.90
26081;DHT22;13991;51.174;4.438;2023-08-31T04:10:49;14.10;99.90
26081;DHT22;13991;51.174;4.438;2023-08-31T04:13:15;14.10;99.90
26081;DHT22;13991;51.174;4.438;2023-08-31T04:15:41;14.10;99.90
26081;DHT22;13991;51.174;4.438;2023-08-31T04:18:07;14.10;99.90
26081;DHT22;13991;51.174;4.438;2023-08-31T04:20:33;14.00;99.90
26081;DHT22;13991;51.174;4.438;2023-08-31T04:22:59;14.00;99.90
26081;DHT22;13991;51.174;4.438;2023-08-31T04:25:24;14.00;99.90
26081;DHT22;13991;51.174;4.438;2023-08-31T04:27:51;14.00;99.90
26081;DHT22;13991;51.174;4.438;2023-08-31T04:30:17;14.00;99.90
26081;DHT22;13991;51.174;4.438;2023-08-31T04:32:43;14.00;99.90
26081;DHT22;13991;51.174;4.438;2023-08-31T04:35:09;14.00;99.90
26081;DHT22;13991;51.174;4.438;2023-08-31T04:37:35;14.00;99.90
26081;DHT22;13991;51.174;4.438;2023-08-31T04:40:01;13.90;99.90
26081;DHT22;13991;51.174;4.438;2023-08-31T04:42:26;13.90;99.90
26081;DHT22;13991;51.174;4.438;2023-08-31T04:44:52;14.00;99.90
26081;DHT22;13991;51.174;4.438;2023-08-31T04:47:17;14.00;99.90
26081;DHT22;13991;51.174;4.438;2023-08-31T04:49:43;14.00;99.90
26081;DHT22;13991;51.174;4.438;2023-08-31T04:52:09;14.00;99.90
26081;DHT22;13991;51.174;4.438;2023-08-31T04:54:35;13.90;99.90
26081;DHT22;13991;51.174;4.438;2023-08-31T04:57:00;13.90;99.90
26081;DHT22;13991;51.174;4.438;2023-08-31T04:59:26;13.80;99.90
26081;DHT22;13991;51.174;4.438;2023-08-31T05:01:51;13.90;99.90
26081;DHT22;13991;51.174;4.438;2023-08-31T05:04:17;14.00;99.90
26081;DHT22;13991;51.174;4.438;2023-08-31T05:06:43;14.00;99.90
26081;DHT22;13991;51.174;4.438;2023-08-31T05:09:08;14.00;99.90
26081;DHT22;13991;51.174;4.438;2023-08-31T05:11:35;14.10;99.90
26081;DHT22;13991;51.174;4.438;2023-08-31T05:14:01;14.10;99.90
26081;DHT22;13991;51.174;4.438;2023-08-31T05:16:26;14.10;99.90
26081;DHT22;13991;51.174;4.438;2023-08-31T05:18:52;14.00;99.90
26081;DHT22;13991;51.174;4.438;2023-08-31T05:21:17;14.00;99.90
26081;DHT22;13991;51.174;4.438;2023-08-31T05:23:43;14.10;99.90
26081;DHT22;13991;51.174;4.438;2023-08-31T05:26:09;14.20;99.90
26081;DHT22;13991;51.174;4.438;2023-08-31T05:28:34;14.20;99.90
26081;DHT22;13991;51.174;4.438;2023-08-31T05:31:01;14.30;99.90
26081;DHT22;13991;51.174;4.438;2023-08-31T05:33:28;14.40;99.90
26081;DHT22;13991;51.174;4.438;2023-08-31T05:35:55;14.30;99.90
26081;DHT22;13991;51.174;4.438;2023-08-31T05:38:20;14.40;99.90
26081;DHT22;13991;51.174;4.438;2023-08-31T05:40:46;14.50;99.90
26081;DHT22;13991;51.174;4.438;2023-08-31T05:43:16;14.60;99.90
26081;DHT22;13991;51.174;4.438;2023-08-31T05:45:42;14.50;99.90
26081;DHT22;13991;51.174;4.438;2023-08-31T05:48:08;14.60;99.90
26081;DHT22;13991;51.174;4.438;2023-08-31T05:50:34;14.70;99.90
26081;DHT22;13991;51.174;4.438;2023-08-31T05:53:02;14.80;99.90
26081;DHT22;13991;51.174;4.438;2023-08-31T05:55:28;14.80;99.90
26081;DHT22;13991;51.174;4.438;2023-08-31T05:57:53;14.80;99.90
26081;DHT22;13991;51.174;4.438;2023-08-31T06:00:19;14.90;99.90
26081;DHT22;13991;51.174;4.438;2023-08-31T06:02:45;15.00;99.90
26081;DHT22;13991;51.174;4.438;2023-08-31T06:05:11;15.10;99.90
26081;DHT22;13991;51.174;4.438;2023-08-31T06:07:42;15.10;99.90
26081;DHT22;13991;51.174;4.438;2023-08-31T06:10:07;15.20;99.90
26081;DHT22;13991;51.174;4.438;2023-08-31T06:12:33;15.10;99.90
26081;DHT22;13991;51.174;4.438;2023-08-31T06:14:59;15.20;99.90
26081;DHT22;13991;51.174;4.438;2023-08-31T06:17:25;15.30;99.90
26081;DHT22;13991;51.174;4.438;2023-08-31T06:19:51;15.20;99.90
26081;DHT22;13991;51.174;4.438;2023-08-31T06:22:17;15.30;99.90
26081;DHT22;13991;51.174;4.438;2023-08-31T06:24:43;15.40;99.90
26081;DHT22;13991;51.174;4.438;2023-08-31T06:27:11;15.40;99.90
26081;DHT22;13991;51.174;4.438;2023-08-31T06:29:38;15.40;99.90
26081;DHT22;13991;51.174;4.438;2023-08-31T06:32:04;15.40;99.90
26081;DHT22;13991;51.174;4.438;2023-08-31T06:34:30;15.50;99.90
26081;DHT22;13991;51.174;4.438;2023-08-31T06:36:56;15.50;99.90
26081;DHT22;13991;51.174;4.438;2023-08-31T06:39:24;15.50;99.90
26081;DHT22;13991;51.174;4.438;2023-08-31T06:41:49;15.50;99.90
26081;DHT22;13991;51.174;4.438;2023-08-31T06:44:15;15.50;99.90
26081;DHT22;13991;51.174;4.438;2023-08-31T06:46:42;15.40;99.90
26081;DHT22;13991;51.174;4.438;2023-08-31T06:49:07;15.50;99.90
26081;DHT22;13991;51.174;4.438;2023-08-31T06:51:33;15.50;99.90
26081;DHT22;13991;51.174;4.438;2023-08-31T06:54:00;15.50;99.90
26081;DHT22;13991;51.174;4.438;2023-08-31T06:56:32;15.60;99.90
26081;DHT22;13991;51.174;4.438;2023-08-31T06:58:58;15.70;99.90
26081;DHT22;13991;51.174;4.438;2023-08-31T07:01:24;15.80;99.90
26081;DHT22;13991;51.174;4.438;2023-08-31T07:03:50;15.80;99.90
26081;DHT22;13991;51.174;4.438;2023-08-31T07:06:15;15.90;99.90
26081;DHT22;13991;51.174;4.438;2023-08-31T07:08:41;16.00;99.90
26081;DHT22;13991;51.174;4.438;2023-08-31T07:11:11;15.90;99.90
26081;DHT22;13991;51.174;4.438;2023-08-31T07:13:36;16.00;99.90
26081;DHT22;13991;51.174;4.438;2023-08-31T07:16:02;16.10;99.90
26081;DHT22;13991;51.174;4.438;2023-08-31T07:18:28;16.10;99.90
26081;DHT22;13991;51.174;4.438;2023-08-31T07:20:53;16.20;99.90
26081;DHT22;13991;51.174;4.438;2023-08-31T07:23:20;16.00;99.90
26081;DHT22;13991;51.174;4.438;2023-08-31T07:25:46;16.10;99.90
26081;DHT22;13991;51.174;4.438;2023-08-31T07:28:12;16.20;99.90
26081;DHT22;13991;51.174;4.438;2023-08-31T07:30:38;16.20;99.90
26081;DHT22;13991;51.174;4.438;2023-08-31T07:33:03;16.30;99.90
26081;DHT22;13991;51.174;4.438;2023-08-31T07:35:30;16.30;99.90
26081;DHT22;13991;51.174;4.438;2023-08-31T07:37:56;16.20;99.90
26081;DHT22;13991;51.174;4.438;2023-08-31T07:40:21;16.30;99.90
26081;DHT22;13991;51.174;4.438;2023-08-31T07:42:47;16.40;99.90
26081;DHT22;13991;51.174;4.438;2023-08-31T07:45:13;16.40;99.90
26081;DHT22;13991;51.174;4.438;2023-08-31T07:47:38;16.50;99.90
26081;DHT22;13991;51.174;4.438;2023-08-31T07:50:05;16.70;99.90
26081;DHT22;13991;51.174;4.438;2023-08-31T07:52:32;16.80;99.90
26081;DHT22;13991;51.174;4.438;2023-08-31T07:54:57;16.80;99.90
26081;DHT22;13991;51.174;4.438;2023-08-31T07:57:23;16.80;99.90
26081;DHT22;13991;51.174;4.438;2023-08-31T07:59:49;16.90;99.90
26081;DHT22;13991;51.174;4.438;2023-08-31T08:02:15;17.00;99.90
26081;DHT22;13991;51.174;4.438;2023-08-31T08:04:42;17.20;99.90
26081;DHT22;13991;51.174;4.438;2023-08-31T08:07:08;17.10;99.90
26081;DHT22;13991;51.174;4.438;2023-08-31T08:09:34;17.10;99.90
26081;DHT22;13991;51.174;4.438;2023-08-31T08:12:01;17.30;99.90
26081;DHT22;13991;51.174;4.438;2023-08-31T08:14:27;17.50;99.90
26081;DHT22;13991;51.174;4.438;2023-08-31T08:16:53;17.50;99.90
26081;DHT22;13991;51.174;4.438;2023-08-31T08:19:23;17.40;99.90
26081;DHT22;13991;51.174;4.438;2023-08-31T08:21:50;17.40;99.90
26081;DHT22;13991;51.174;4.438;2023-08-31T08:24:16;17.40;99.90
26081;DHT22;13991;51.174;4.438;2023-08-31T08:26:42;17.60;99.90
26081;DHT22;13991;51.174;4.438;2023-08-31T08:29:07;17.80;99.90
26081;DHT22;13991;51.174;4.438;2023-08-31T08:31:33;17.80;99.90
26081;DHT22;13991;51.174;4.438;2023-08-31T08:33:59;18.00;99.90
26081;DHT22;13991;51.174;4.438;2023-08-31T08:36:25;18.10;99.90
26081;DHT22;13991;51.174;4.438;2023-08-31T08:38:51;17.90;99.90
26081;DHT22;13991;51.174;4.438;2023-08-31T08:41:24;18.00;99.90
26081;DHT22;13991;51.174;4.438;2023-08-31T08:43:52;18.20;99.90
26081;DHT22;13991;51.174;4.438;2023-08-31T08:46:18;18.40;99.90
26081;DHT22;13991;51.174;4.438;2023-08-31T08:48:44;18.50;99.90
26081;DHT22;13991;51.174;4.438;2023-08-31T08:51:11;18.60;99.90
26081;DHT22;13991;51.174;4.438;2023-08-31T08:53:38;18.70;99.90
26081;DHT22;13991;51.174;4.438;2023-08-31T08:56:05;18.80;99.90
26081;DHT22;13991;51.174;4.438;2023-08-31T08:58:31;18.80;99.90
26081;DHT22;13991;51.174;4.438;2023-08-31T09:00:56;18.90;99.90
26081;DHT22;13991;51.174;4.438;2023-08-31T09:03:23;18.80;99.90
26081;DHT22;13991;51.174;4.438;2023-08-31T09:05:50;19.00;99.90
26081;DHT22;13991;51.174;4.438;2023-08-31T09:08:16;19.00;99.90
26081;DHT22;13991;51.174;4.438;2023-08-31T09:10:43;19.20;99.90
26081;DHT22;13991;51.174;4.438;2023-08-31T09:13:11;19.10;99.90
26081;DHT22;13991;51.174;4.438;2023-08-31T09:15:48;19.20;99.90
26081;DHT22;13991;51.174;4.438;2023-08-31T09:18:24;19.40;99.90
26081;DHT22;13991;51.174;4.438;2023-08-31T09:20:50;19.40;99.90
26081;DHT22;13991;51.174;4.438;2023-08-31T09:23:16;19.60;99.90
26081;DHT22;13991;51.174;4.438;2023-08-31T09:25:47;19.80;99.90
26081;DHT22;13991;51.174;4.438;2023-08-31T09:28:16;19.60;99.90
26081;DHT22;13991;51.174;4.438;2023-08-31T09:30:46;19.50;99.90
26081;DHT22;13991;51.174;4.438;2023-08-31T09:33:17;19.50;99.90
26081;DHT22;13991;51.174;4.438;2023-08-31T09:35:48;19.60;99.90
26081;DHT22;13991;51.174;4.438;2023-08-31T09:38:15;19.60;99.90
26081;DHT22;13991;51.174;4.438;2023-08-31T09:40:40;19.80;99.90
26081;DHT22;13991;51.174;4.438;2023-08-31T09:43:07;20.00;99.90
26081;DHT22;13991;51.174;4.438;2023-08-31T09:45:34;20.10;99.90
26081;DHT22;13991;51.174;4.438;2023-08-31T09:48:01;20.10;99.90
26081;DHT22;13991;51.174;4.438;2023-08-31T09:50:32;20.30;99.90
26081;DHT22;13991;51.174;4.438;2023-08-31T09:53:03;20.00;99.90
26081;DHT22;13991;51.174;4.438;2023-08-31T09:55:31;19.40;99.90
26081;DHT22;13991;51.174;4.438;2023-08-31T09:58:01;19.70;99.90
26081;DHT22;13991;51.174;4.438;2023-08-31T10:00:30;19.90;99.90
26081;DHT22;13991;51.174;4.438;2023-08-31T10:02:58;20.00;99.90
26081;DHT22;13991;51.174;4.438;2023-08-31T10:05:25;20.10;99.90
26081;DHT22;13991;51.174;4.438;2023-08-31T10:07:51;20.20;99.90
26081;DHT22;13991;51.174;4.438;2023-08-31T10:10:17;19.80;99.90
26081;DHT22;13991;51.174;4.438;2023-08-31T10:12:48;20.00;99.90
26081;DHT22;13991;51.174;4.438;2023-08-31T10:15:15;20.20;99.90
26081;DHT22;13991;51.174;4.438;2023-08-31T10:17:41;20.40;99.90
26081;DHT22;13991;51.174;4.438;2023-08-31T10:20:09;20.70;99.90
26081;DHT22;13991;51.174;4.438;2023-08-31T10:22:36;20.80;99.90
26081;DHT22;13991;51.174;4.438;2023-08-31T10:25:04;20.90;99.90
26081;DHT22;13991;51.174;4.438;2023-08-31T10:27:44;20.90;99.90
26081;DHT22;13991;51.174;4.438;2023-08-31T10:30:25;20.70;99.90
26081;DHT22;13991;51.174;4.438;2023-08-31T10:35:48;20.60;99.90
26081;DHT22;13991;51.174;4.438;2023-08-31T10:38:15;20.60;99.90
26081;DHT22;13991;51.174;4.438;2023-08-31T10:40:41;20.60;99.90
26081;DHT22;13991;51.174;4.438;2023-08-31T10:43:16;20.70;99.90
26081;DHT22;13991;51.174;4.438;2023-08-31T10:45:45;21.00;99.90
26081;DHT22;13991;51.174;4.438;2023-08-31T10:48:11;20.90;99.90
26081;DHT22;13991;51.174;4.438;2023-08-31T10:50:45;21.00;99.90
26081;DHT22;13991;51.174;4.438;2023-08-31T10:53:12;21.10;99.90
26081;DHT22;13991;51.174;4.438;2023-08-31T10:55:53;21.20;99.90
26081;DHT22;13991;51.174;4.438;2023-08-31T10:58:19;21.10;99.90
26081;DHT22;13991;51.174;4.438;2023-08-31T11:00:52;21.20;99.90
26081;DHT22;13991;51.174;4.438;2023-08-31T11:03:18;21.20;99.90
26081;DHT22;13991;51.174;4.438;2023-08-31T11:05:53;21.10;99.90
26081;DHT22;13991;51.174;4.438;2023-08-31T11:08:25;20.80;99.90
26081;DHT22;13991;51.174;4.438;2023-08-31T11:10:52;20.60;99.90
26081;DHT22;13991;51.174;4.438;2023-08-31T11:13:23;20.70;99.90
26081;DHT22;13991;51.174;4.438;2023-08-31T11:15:49;20.90;99.90
26081;DHT22;13991;51.174;4.438;2023-08-31T11:18:15;21.10;99.90
26081;DHT22;13991;51.174;4.438;2023-08-31T11:20:43;21.00;99.90
26081;DHT22;13991;51.174;4.438;2023-08-31T11:23:09;21.20;99.90
26081;DHT22;13991;51.174;4.438;2023-08-31T11:25:35;21.00;99.90
26081;DHT22;13991;51.174;4.438;2023-08-31T11:28:06;21.00;99.90
26081;DHT22;13991;51.174;4.438;2023-08-31T11:30:33;21.00;99.90
26081;DHT22;13991;51.174;4.438;2023-08-31T11:33:06;21.10;99.90
26081;DHT22;13991;51.174;4.438;2023-08-31T11:35:37;21.00;99.90
26081;DHT22;13991;51.174;4.438;2023-08-31T11:38:05;20.80;99.90
26081;DHT22;13991;51.174;4.438;2023-08-31T11:40:31;20.80;99.90
26081;DHT22;13991;51.174;4.438;2023-08-31T11:42:58;20.70;99.90
26081;DHT22;13991;51.174;4.438;2023-08-31T11:45:29;20.70;99.90
26081;DHT22;13991;51.174;4.438;2023-08-31T11:47:55;21.00;99.90
26081;DHT22;13991;51.174;4.438;2023-08-31T11:50:22;21.20;99.90
26081;DHT22;13991;51.174;4.438;2023-08-31T11:52:49;21.20;99.90
26081;DHT22;13991;51.174;4.438;2023-08-31T11:55:16;21.40;99.90
26081;DHT22;13991;51.174;4.438;2023-08-31T11:57:50;21.50;99.90
26081;DHT22;13991;51.174;4.438;2023-08-31T12:00:17;21.40;99.90
26081;DHT22;13991;51.174;4.438;2023-08-31T12:02:43;21.40;99.90
26081;DHT22;13991;51.174;4.438;2023-08-31T12:05:11;21.40;99.90
26081;DHT22;13991;51.174;4.438;2023-08-31T12:07:41;21.40;99.90
26081;DHT22;13991;51.174;4.438;2023-08-31T12:10:08;21.50;99.90
26081;DHT22;13991;51.174;4.438;2023-08-31T12:12:34;21.70;99.90
26081;DHT22;13991;51.174;4.438;2023-08-31T12:15:02;21.80;99.90
26081;DHT22;13991;51.174;4.438;2023-08-31T12:17:29;21.90;99.90
26081;DHT22;13991;51.174;4.438;2023-08-31T12:20:05;22.20;99.90
26081;DHT22;13991;51.174;4.438;2023-08-31T12:22:31;22.20;99.90
26081;DHT22;13991;51.174;4.438;2023-08-31T12:24:56;22.20;99.90
26081;DHT22;13991;51.174;4.438;2023-08-31T12:27:22;22.40;99.90
26081;DHT22;13991;51.174;4.438;2023-08-31T12:29:47;22.40;99.90
26081;DHT22;13991;51.174;4.438;2023-08-31T12:32:15;22.60;99.90
26081;DHT22;13991;51.174;4.438;2023-08-31T12:34:40;23.00;99.90
26081;DHT22;13991;51.174;4.438;2023-08-31T12:37:06;22.80;99.90
26081;DHT22;13991;51.174;4.438;2023-08-31T12:39:32;22.80;99.90
26081;DHT22;13991;51.174;4.438;2023-08-31T12:41:58;22.20;99.90
26081;DHT22;13991;51.174;4.438;2023-08-31T12:44:25;22.30;99.90
26081;DHT22;13991;51.174;4.438;2023-08-31T12:46:51;22.40;99.90
26081;DHT22;13991;51.174;4.438;2023-08-31T12:49:17;22.00;99.90
26081;DHT22;13991;51.174;4.438;2023-08-31T12:51:45;21.90;99.90
26081;DHT22;13991;51.174;4.438;2023-08-31T12:54:11;22.00;99.90
26081;DHT22;13991;51.174;4.438;2023-08-31T12:56:37;22.10;99.90
26081;DHT22;13991;51.174;4.438;2023-08-31T12:59:03;21.90;99.90
26081;DHT22;13991;51.174;4.438;2023-08-31T13:01:31;22.20;99.90
26081;DHT22;13991;51.174;4.438;2023-08-31T13:03:58;22.50;99.90
26081;DHT22;13991;51.174;4.438;2023-08-31T13:06:24;22.70;99.90
26081;DHT22;13991;51.174;4.438;2023-08-31T13:08:51;23.00;99.90
26081;DHT22;13991;51.174;4.438;2023-08-31T13:11:17;23.00;99.90
26081;DHT22;13991;51.174;4.438;2023-08-31T13:13:49;22.70;99.90
26081;DHT22;13991;51.174;4.438;2023-08-31T13:16:16;22.50;99.90
26081;DHT22;13991;51.174;4.438;2023-08-31T13:18:42;22.20;99.90
26081;DHT22;13991;51.174;4.438;2023-08-31T13:21:08;22.10;99.90
26081;DHT22;13991;51.174;4.438;2023-08-31T13:23:33;22.10;99.90
26081;DHT22;13991;51.174;4.438;2023-08-31T13:25:59;21.80;99.90
26081;DHT22;13991;51.174;4.438;2023-08-31T13:28:25;21.70;99.90
26081;DHT22;13991;51.174;4.438;2023-08-31T13:30:55;21.90;99.90
26081;DHT22;13991;51.174;4.438;2023-08-31T13:33:22;22.00;99.90
26081;DHT22;13991;51.174;4.438;2023-08-31T13:35:49;22.00;99.90
26081;DHT22;13991;51.174;4.438;2023-08-31T13:38:14;21.90;99.90
26081;DHT22;13991;51.174;4.438;2023-08-31T13:40:40;21.90;99.90
26081;DHT22;13991;51.174;4.438;2023-08-31T13:43:06;21.50;99.90
26081;DHT22;13991;51.174;4.438;2023-08-31T13:45:31;21.40;99.90
26081;DHT22;13991;51.174;4.438;2023-08-31T13:47:58;21.50;99.90
26081;DHT22;13991;51.174;4.438;2023-08-31T13:50:28;21.40;99.90
26081;DHT22;13991;51.174;4.438;2023-08-31T13:52:54;21.50;99.90
26081;DHT22;13991;51.174;4.438;2023-08-31T13:55:20;21.40;99.90
26081;DHT22;13991;51.174;4.438;2023-08-31T13:57:46;21.30;99.90
26081;DHT22;13991;51.174;4.438;2023-08-31T14:00:12;21.40;99.90
26081;DHT22;13991;51.174;4.438;2023-08-31T14:02:38;21.20;99.90
26081;DHT22;13991;51.174;4.438;2023-08-31T14:05:07;21.30;99.90
26081;DHT22;13991;51.174;4.438;2023-08-31T14:07:34;21.20;99.90
26081;DHT22;13991;51.174;4.438;2023-08-31T14:10:00;21.20;99.90
26081;DHT22;13991;51.174;4.438;2023-08-31T14:12:26;21.40;99.90
26081;DHT22;13991;51.174;4.438;2023-08-31T14:14:52;21.50;99.90
26081;DHT22;13991;51.174;4.438;2023-08-31T14:17:18;21.60;99.90
26081;DHT22;13991;51.174;4.438;2023-08-31T14:19:44;21.70;99.90
26081;DHT22;13991;51.174;4.438;2023-08-31T14:22:10;21.70;99.90
26081;DHT22;13991;51.174;4.438;2023-08-31T14:24:36;21.70;99.90
26081;DHT22;13991;51.174;4.438;2023-08-31T14:27:03;21.80;99.90
26081;DHT22;13991;51.174;4.438;2023-08-31T14:29:28;21.80;99.90
26081;DHT22;13991;51.174;4.438;2023-08-31T14:31:54;21.60;99.90
26081;DHT22;13991;51.174;4.438;2023-08-31T14:34:21;21.70;99.90
26081;DHT22;13991;51.174;4.438;2023-08-31T14:36:47;21.70;99.90
26081;DHT22;13991;51.174;4.438;2023-08-31T14:39:13;21.60;99.90
26081;DHT22;13991;51.174;4.438;2023-08-31T14:41:40;21.60;99.90
26081;DHT22;13991;51.174;4.438;2023-08-31T14:44:06;21.70;99.90
26081;DHT22;13991;51.174;4.438;2023-08-31T14:46:31;21.60;99.90
26081;DHT22;13991;51.174;4.438;2023-08-31T14:48:58;21.50;99.90
26081;DHT22;13991;51.174;4.438;2023-08-31T14:51:24;21.60;99.90
26081;DHT22;13991;51.174;4.438;2023-08-31T14:53:49;21.70;99.90
26081;DHT22;13991;51.174;4.438;2023-08-31T14:56:15;21.60;99.90
26081;DHT22;13991;51.174;4.438;2023-08-31T14:58:41;21.50;99.90
26081;DHT22;13991;51.174;4.438;2023-08-31T15:01:06;21.60;99.90
26081;DHT22;13991;51.174;4.438;2023-08-31T15:03:32;21.60;99.90
26081;DHT22;13991;51.174;4.438;2023-08-31T15:05:58;21.60;99.90
26081;DHT22;13991;51.174;4.438;2023-08-31T15:08:38;21.60;99.90
26081;DHT22;13991;51.174;4.438;2023-08-31T15:11:04;21.50;99.90
26081;DHT22;13991;51.174;4.438;2023-08-31T15:13:30;21.30;99.90
26081;DHT22;13991;51.174;4.438;2023-08-31T15:15:55;21.40;99.90
26081;DHT22;13991;51.174;4.438;2023-08-31T15:18:21;21.40;99.90
26081;DHT22;13991;51.174;4.438;2023-08-31T15:20:47;21.40;99.90
26081;DHT22;13991;51.174;4.438;2023-08-31T15:23:13;21.40;99.90
26081;DHT22;13991;51.174;4.438;2023-08-31T15:25:39;21.30;99.90
26081;DHT22;13991;51.174;4.438;2023-08-31T15:28:05;21.30;99.90
26081;DHT22;13991;51.174;4.438;2023-08-31T15:30:30;21.20;99.90
26081;DHT22;13991;51.174;4.438;2023-08-31T15:33:04;21.30;99.90
26081;DHT22;13991;51.174;4.438;2023-08-31T15:35:31;21.30;99.90
26081;DHT22;13991;51.174;4.438;2023-08-31T15:37:57;21.10;99.90
26081;DHT22;13991;51.174;4.438;2023-08-31T15:40:22;21.10;99.90
26081;DHT22;13991;51.174;4.438;2023-08-31T15:42:48;21.10;99.90
26081;DHT22;13991;51.174;4.438;2023-08-31T15:45:14;21.00;99.90